Time;durP1;ratioP1;P1;durP2;ratioP2;P2;SDS_P1;SDS_P2;PMS_P1;PMS_P2;Temp;Humidity;BMP_temperature;BMP_pressure;BME280_temperature;BME280_humidity;BME280_pressure;Samples;Min_cycle;Max_cycle;Signal;HPM_P1;HPM_P2
2023/07/29 00:00:02;;;;;;;5.40;3.67;;;;;;;17.93;100.00;99890.78;4963139;28;20198;-67
2023/07/29 00:02:30;;;;;;;4.63;3.37;;;;;;;18.01;100.00;99903.09;4964054;28;20210;-69
2023/07/29 00:04:57;;;;;;;5.73;3.57;;;;;;;17.97;100.00;99892.47;4962618;28;20233;-69
2023/07/29 00:07:23;;;;;;;5.80;4.00;;;;;;;17.94;100.00;99885.38;4964450;28;20292;-69
2023/07/29 00:09:50;;;;;;;8.83;4.23;;;;;;;17.90;100.00;99882.81;4964088;28;20548;-69
2023/07/29 00:12:16;;;;;;;4.77;3.60;;;;;;;17.82;100.00;99878.53;4960280;28;20212;-69
2023/07/29 00:14:42;;;;;;;7.27;3.63;;;;;;;17.85;100.00;99882.94;4963693;28;20237;-69
2023/07/29 00:17:09;;;;;;;5.67;3.40;;;;;;;17.75;100.00;99884.97;4967051;28;20308;-70
2023/07/29 00:19:35;;;;;;;6.07;3.70;;;;;;;17.65;100.00;99883.41;4965357;28;20216;-68
2023/07/29 00:22:02;;;;;;;4.50;3.30;;;;;;;17.55;100.00;99885.38;4959141;28;20198;-69
2023/07/29 00:24:28;;;;;;;4.60;3.20;;;;;;;17.43;100.00;99874.97;4962608;28;20205;-69
2023/07/29 00:26:55;;;;;;;6.40;3.83;;;;;;;17.35;100.00;99874.25;4963649;28;20208;-69
2023/07/29 00:29:21;;;;;;;6.53;3.53;;;;;;;17.40;100.00;99882.19;4960757;28;20210;-67
2023/07/29 00:31:48;;;;;;;6.43;3.43;;;;;;;17.31;100.00;99871.69;4964214;28;20297;-69
2023/07/29 00:34:19;;;;;;;5.80;3.70;;;;;;;17.28;100.00;99872.63;4963707;28;20206;-69
2023/07/29 00:36:45;;;;;;;7.77;3.30;;;;;;;17.32;100.00;99871.66;4961875;28;20233;-69
2023/07/29 00:39:12;;;;;;;8.63;3.80;;;;;;;17.36;100.00;99868.00;4962595;28;20209;-70
2023/07/29 00:41:39;;;;;;;6.47;3.77;;;;;;;17.32;100.00;99854.72;4962164;28;20272;-68
2023/07/29 00:44:06;;;;;;;6.20;4.00;;;;;;;17.33;100.00;99864.50;4959473;28;20297;-69
2023/07/29 00:46:34;;;;;;;5.30;3.97;;;;;;;17.32;100.00;99852.03;4960367;28;20226;-69
2023/07/29 00:49:02;;;;;;;5.30;3.73;;;;;;;17.33;100.00;99860.03;4957076;28;20204;-69
2023/07/29 00:51:28;;;;;;;5.40;3.90;;;;;;;17.47;100.00;99855.22;4963876;28;20910;-69
2023/07/29 00:53:54;;;;;;;6.80;3.90;;;;;;;17.60;100.00;99858.50;4958877;28;20302;-67
2023/07/29 00:56:21;;;;;;;4.77;3.83;;;;;;;17.60;100.00;99842.41;4961589;28;20411;-70
2023/07/29 00:58:47;;;;;;;6.63;4.00;;;;;;;17.57;100.00;99850.53;4962479;28;20292;-70
2023/07/29 01:01:14;;;;;;;6.63;3.97;;;;;;;17.53;100.00;99841.69;4966618;28;20214;-69
2023/07/29 01:03:40;;;;;;;4.73;3.97;;;;;;;17.48;100.00;99843.59;4964695;28;20303;-69
2023/07/29 01:06:18;;;;;;;5.73;3.83;;;;;;;17.35;100.00;99847.50;4965287;28;20230;-70
2023/07/29 01:09:00;;;;;;;4.87;4.20;;;;;;;17.28;100.00;99837.84;4961165;28;20205;-69
2023/07/29 01:11:45;;;;;;;5.90;4.37;;;;;;;17.31;100.00;99819.03;4966655;28;20205;-69
2023/07/29 01:14:34;;;;;;;5.73;4.27;;;;;;;17.44;100.00;99825.84;4962595;28;20197;-69
2023/07/29 01:17:06;;;;;;;12.73;4.90;;;;;;;17.43;100.00;99825.91;4961349;28;20222;-69
2023/07/29 01:19:57;;;;;;;5.73;4.60;;;;;;;17.26;100.00;99823.63;4965743;28;20692;-69
2023/07/29 01:22:24;;;;;;;5.27;4.20;;;;;;;17.16;100.00;99838.09;4965212;28;20209;-69
2023/07/29 01:24:50;;;;;;;5.13;4.33;;;;;;;17.13;100.00;99839.03;4965213;28;20233;-70
2023/07/29 01:27:17;;;;;;;6.83;4.90;;;;;;;17.14;100.00;99845.28;4965378;28;20213;-69
2023/07/29 01:29:43;;;;;;;6.93;4.73;;;;;;;17.18;100.00;99844.28;4965320;28;20205;-69
2023/07/29 01:32:28;;;;;;;8.47;4.43;;;;;;;17.22;100.00;99846.03;4965771;28;20209;-69
2023/07/29 01:35:03;;;;;;;8.07;5.13;;;;;;;17.34;100.00;99836.81;4962288;28;20230;-70
2023/07/29 01:37:34;;;;;;;9.23;4.43;;;;;;;17.36;100.00;99832.31;4960525;28;20471;-69
2023/07/29 01:40:01;;;;;;;6.37;3.70;;;;;;;17.39;100.00;99833.13;4959649;28;20219;-69
2023/07/29 01:42:29;;;;;;;6.30;4.47;;;;;;;17.43;100.00;99829.44;4964538;28;20205;-69
2023/07/29 01:44:56;;;;;;;6.33;4.47;;;;;;;17.49;100.00;99831.97;4964411;28;20239;-69
2023/07/29 01:47:22;;;;;;;9.13;4.60;;;;;;;17.59;100.00;99827.28;4953046;28;20234;-70
2023/07/29 01:49:49;;;;;;;5.43;4.10;;;;;;;17.73;100.00;99829.66;4952833;28;20211;-69
2023/07/29 01:52:15;;;;;;;7.30;4.87;;;;;;;17.75;100.00;99833.19;4963976;28;20674;-69
2023/07/29 01:54:42;;;;;;;9.30;5.57;;;;;;;17.78;100.00;99831.31;4966447;28;20237;-70
2023/07/29 01:57:08;;;;;;;7.33;5.73;;;;;;;17.87;100.00;99823.97;4961730;28;20699;-70
2023/07/29 01:59:35;;;;;;;9.30;6.83;;;;;;;17.92;100.00;99814.88;4965251;28;20212;-70
2023/07/29 02:02:01;;;;;;;9.07;5.13;;;;;;;17.93;100.00;99818.44;4957042;28;20214;-69
2023/07/29 02:04:27;;;;;;;9.93;5.97;;;;;;;18.11;100.00;99818.84;4966450;28;20213;-69
2023/07/29 02:06:54;;;;;;;7.43;4.90;;;;;;;18.11;100.00;99807.25;4967206;28;20245;-69
2023/07/29 02:09:21;;;;;;;9.67;5.00;;;;;;;18.04;100.00;99817.25;4968125;28;20213;-70
2023/07/29 02:11:47;;;;;;;7.17;4.57;;;;;;;18.01;100.00;99829.84;4966626;28;20201;-69
2023/07/29 02:14:14;;;;;;;5.03;4.40;;;;;;;17.99;100.00;99815.59;4969162;28;20298;-69
2023/07/29 02:16:41;;;;;;;8.30;5.23;;;;;;;17.99;100.00;99815.59;4967210;28;20231;-69
2023/07/29 02:19:08;;;;;;;7.77;5.03;;;;;;;18.01;100.00;99820.03;4967473;28;20206;-68
2023/07/29 02:21:34;;;;;;;6.97;4.90;;;;;;;18.04;100.00;99825.31;4968593;28;20831;-68
2023/07/29 02:24:00;;;;;;;8.02;4.80;;;;;;;18.12;100.00;99811.69;4967815;28;20201;-70
2023/07/29 02:26:27;;;;;;;6.63;4.73;;;;;;;18.11;100.00;99807.25;4964420;28;20225;-71
2023/07/29 02:28:53;;;;;;;6.83;5.20;;;;;;;18.11;100.00;99805.47;4966246;28;20216;-72
2023/07/29 02:31:24;;;;;;;5.43;4.20;;;;;;;18.06;100.00;99807.38;4963805;28;20214;-70
2023/07/29 02:33:51;;;;;;;6.00;5.13;;;;;;;18.09;100.00;99801.94;4965804;28;20202;-71
2023/07/29 02:36:18;;;;;;;7.00;5.20;;;;;;;18.01;100.00;99801.28;4962244;28;20229;-71
2023/07/29 02:38:44;;;;;;;8.50;5.13;;;;;;;17.96;100.00;99795.13;4967370;28;20693;-70
2023/07/29 02:41:15;;;;;;;9.67;4.87;;;;;;;17.90;100.00;99791.72;4964520;28;20228;-70
2023/07/29 02:43:43;;;;;;;12.13;5.93;;;;;;;17.83;100.00;99791.91;4968379;28;20198;-69
2023/07/29 02:46:12;;;;;;;7.03;5.20;;;;;;;17.89;100.00;99789.97;4966930;28;20600;-70
2023/07/29 02:48:38;;;;;;;7.60;5.40;;;;;;;17.76;100.00;99776.91;4963708;28;20214;-70
2023/07/29 02:51:04;;;;;;;8.10;5.80;;;;;;;17.64;100.00;99784.34;4967430;28;20205;-70
2023/07/29 02:53:31;;;;;;;10.03;5.90;;;;;;;17.55;100.00;99777.41;4966083;28;20209;-71
2023/07/29 02:55:57;;;;;;;8.33;5.97;;;;;;;17.52;100.00;99769.44;4966566;28;20225;-70
2023/07/29 02:58:26;;;;;;;7.70;5.77;;;;;;;17.52;100.00;99772.13;4968845;28;20222;-70
2023/07/29 03:00:52;;;;;;;6.87;5.57;;;;;;;17.56;100.00;99773.78;4966451;28;20209;-70
2023/07/29 03:03:19;;;;;;;10.13;6.00;;;;;;;17.58;100.00;99773.75;4966189;28;20209;-70
2023/07/29 03:05:46;;;;;;;7.33;5.97;;;;;;;17.58;100.00;99766.59;4973407;28;20241;-70
2023/07/29 03:08:13;;;;;;;11.03;6.80;;;;;;;17.70;100.00;99765.47;4976022;28;20633;-70
2023/07/29 03:10:39;;;;;;;8.73;6.50;;;;;;;17.65;100.00;99765.56;4961581;28;20724;-69
2023/07/29 03:13:05;;;;;;;8.27;6.10;;;;;;;17.64;100.00;99761.13;4962406;28;20197;-67
2023/07/29 03:15:33;;;;;;;11.30;7.00;;;;;;;17.69;100.00;99748.53;4968663;28;20223;-70
2023/07/29 03:18:00;;;;;;;9.67;6.80;;;;;;;17.75;100.00;99766.22;4960613;28;20225;-70
2023/07/29 03:20:26;;;;;;;8.03;6.07;;;;;;;17.74;100.00;99761.78;4961671;28;20677;-69
2023/07/29 03:22:53;;;;;;;10.93;7.17;;;;;;;17.73;100.00;99762.72;4966753;28;20202;-70
2023/07/29 03:25:19;;;;;;;9.70;7.20;;;;;;;17.77;100.00;99767.06;4968446;28;20590;-70
2023/07/29 03:27:49;;;;;;;10.50;7.20;;;;;;;17.75;100.00;99771.59;4961180;28;20284;-68
2023/07/29 03:30:19;;;;;;;10.90;7.30;;;;;;;17.75;100.00;99769.78;4962853;28;20241;-69
2023/07/29 03:32:45;;;;;;;9.40;6.47;;;;;;;17.78;100.00;99763.47;4962138;28;20213;-69
2023/07/29 03:35:12;;;;;;;7.93;6.43;;;;;;;17.78;100.00;99766.16;4959158;28;20258;-69
2023/07/29 03:37:38;;;;;;;7.33;6.20;;;;;;;17.78;100.00;99750.97;4963614;28;20218;-69
2023/07/29 03:40:06;;;;;;;8.13;6.40;;;;;;;17.80;100.00;99754.47;4966369;28;20356;-69
2023/07/29 03:42:32;;;;;;;9.67;6.17;;;;;;;17.85;100.00;99752.53;4964227;28;20205;-68
2023/07/29 03:44:59;;;;;;;9.07;5.60;;;;;;;17.88;100.00;99740.88;4962161;28;20264;-69
2023/07/29 03:47:25;;;;;;;13.20;6.38;;;;;;;17.88;100.00;99740.00;4982104;23;20226;-71
2023/07/29 03:49:51;;;;;;;9.80;6.55;;;;;;;17.94;100.00;99742.50;4952218;28;20591;-70
2023/07/29 03:52:18;;;;;;;12.17;7.37;;;;;;;17.96;100.00;99746.00;4962185;28;20232;-71
2023/07/29 03:54:45;;;;;;;10.05;7.90;;;;;;;18.01;100.00;99745.00;4958611;28;20297;-69
2023/07/29 03:57:11;;;;;;;14.63;7.47;;;;;;;18.01;100.00;99753.03;4960521;28;20710;-71
2023/07/29 03:59:37;;;;;;;13.32;7.95;;;;;;;18.00;100.00;99748.56;4930158;29;20757;-71
2023/07/29 04:02:04;;;;;;;11.55;7.30;;;;;;;18.07;100.00;99750.19;4928351;28;20229;-71
2023/07/29 04:04:30;;;;;;;10.88;7.32;;;;;;;18.13;100.00;99755.38;4941461;28;20313;-70
2023/07/29 04:06:57;;;;;;;10.00;7.07;;;;;;;18.15;100.00;99749.97;4946030;28;20814;-71
2023/07/29 04:09:24;;;;;;;11.30;7.47;;;;;;;18.15;100.00;99742.81;4948565;28;20202;-71
2023/07/29 04:11:51;;;;;;;9.63;6.30;;;;;;;18.12;100.00;99748.25;4943658;28;20212;-71
2023/07/29 04:14:17;;;;;;;9.23;6.67;;;;;;;18.12;100.00;99748.25;4931570;29;20217;-71
2023/07/29 04:16:45;;;;;;;12.02;7.00;;;;;;;18.21;100.00;99744.44;4945614;28;20681;-71
2023/07/29 04:19:15;;;;;;;9.68;6.55;;;;;;;18.19;100.00;99753.44;4922685;28;20590;-71
2023/07/29 04:21:41;;;;;;;7.95;5.80;;;;;;;18.14;100.00;99756.25;4946592;28;20210;-71
2023/07/29 04:24:07;;;;;;;6.93;5.47;;;;;;;18.12;100.00;99747.38;4927717;28;20329;-71
2023/07/29 04:26:34;;;;;;;7.25;5.65;;;;;;;18.12;100.00;99747.38;4941273;28;20210;-70
2023/07/29 04:29:01;;;;;;;9.63;7.00;;;;;;;18.07;100.00;99736.78;4946451;28;20645;-71
2023/07/29 04:31:27;;;;;;;8.43;6.03;;;;;;;18.03;100.00;99740.47;4932410;29;20300;-71
2023/07/29 04:33:54;;;;;;;8.17;6.13;;;;;;;18.01;100.00;99734.28;4947081;28;20206;-71
2023/07/29 04:36:20;;;;;;;9.15;6.63;;;;;;;18.06;100.00;99726.13;4945990;28;20662;-71
2023/07/29 04:38:46;;;;;;;11.15;7.07;;;;;;;18.13;100.00;99733.94;4946771;28;20312;-71
2023/07/29 04:41:13;;;;;;;8.70;6.50;;;;;;;18.20;100.00;99737.31;4943129;28;20256;-71
2023/07/29 04:43:39;;;;;;;7.95;5.97;;;;;;;18.28;100.00;99737.09;4946834;28;20285;-71
2023/07/29 04:46:07;;;;;;;10.73;6.45;;;;;;;18.32;100.00;99734.28;4927831;28;20267;-71
2023/07/29 04:48:34;;;;;;;10.07;6.90;;;;;;;18.37;100.00;99729.66;4940985;28;20230;-71
2023/07/29 04:51:00;;;;;;;8.18;6.63;;;;;;;18.51;100.00;99731.09;4947213;28;20208;-71
2023/07/29 04:53:27;;;;;;;8.10;6.40;;;;;;;18.69;100.00;99735.91;4944708;28;20210;-69
2023/07/29 04:55:53;;;;;;;11.50;6.25;;;;;;;18.72;100.00;99731.34;4928027;28;20680;-70
2023/07/29 04:58:20;;;;;;;8.43;6.38;;;;;;;18.73;100.00;99733.09;4946738;28;20325;-71
2023/07/29 05:00:47;;;;;;;8.88;6.50;;;;;;;18.85;100.00;99744.41;4945348;28;20203;-71
2023/07/29 05:03:13;;;;;;;9.77;6.78;;;;;;;18.85;100.00;99726.50;4943895;28;20207;-71
2023/07/29 05:05:39;;;;;;;10.20;7.15;;;;;;;18.92;100.00;99743.28;4946332;28;20618;-71
2023/07/29 05:08:06;;;;;;;8.15;5.80;;;;;;;18.93;100.00;99726.25;4945019;28;20591;-71
2023/07/29 05:10:32;;;;;;;8.70;5.88;;;;;;;19.08;100.00;99744.53;4945154;28;20332;-71
2023/07/29 05:12:59;;;;;;;7.03;5.95;;;;;;;19.30;100.00;99732.19;4943032;28;20233;-71
2023/07/29 05:15:25;;;;;;;9.10;5.78;;;;;;;19.45;100.00;99727.25;4945201;28;20261;-72
2023/07/29 05:17:51;;;;;;;9.98;6.00;;;;;;;19.60;100.00;99733.00;4929801;28;20573;-71
2023/07/29 05:20:18;;;;;;;9.65;5.30;;;;;;;19.78;100.00;99738.69;4946463;28;20216;-71
2023/07/29 05:22:44;;;;;;;7.35;5.30;;;;;;;19.88;100.00;99749.06;4946077;28;20218;-71
2023/07/29 05:25:11;;;;;;;8.07;5.35;;;;;;;19.98;100.00;99738.84;4947392;28;20202;-71
2023/07/29 05:27:37;;;;;;;8.23;5.60;;;;;;;20.09;100.00;99738.50;4946815;28;20249;-71
2023/07/29 05:30:04;;;;;;;7.43;5.82;;;;;;;20.25;100.00;99742.38;4948940;28;20273;-71
2023/07/29 05:32:30;;;;;;;8.93;5.43;;;;;;;20.45;100.00;99737.19;4950905;28;20304;-72
2023/07/29 05:34:57;;;;;;;7.13;5.20;;;;;;;20.55;100.00;99754.72;4928096;28;20205;-71
2023/07/29 05:37:23;;;;;;;6.60;4.65;;;;;;;20.76;100.00;99749.47;4947528;28;20249;-72
2023/07/29 05:39:52;;;;;;;7.50;5.20;;;;;;;20.85;100.00;99747.31;4932781;28;20218;-71
2023/07/29 05:42:18;;;;;;;5.13;4.05;;;;;;;20.94;100.00;99754.16;4932692;28;20228;-72
2023/07/29 05:44:45;;;;;;;6.30;4.22;;;;;;;21.07;100.00;99757.22;4946670;28;20238;-72
2023/07/29 05:47:11;;;;;;;5.38;4.30;;;;;;;21.23;100.00;99747.66;4928930;28;20337;-72
2023/07/29 05:49:38;;;;;;;5.15;3.75;;;;;;;21.27;100.00;99757.34;4947655;28;20294;-71
2023/07/29 05:52:05;;;;;;;4.45;3.40;;;;;;;21.12;100.00;99763.28;4945720;28;20202;-72
2023/07/29 05:54:31;;;;;;;4.15;3.60;;;;;;;20.85;100.00;99770.66;4949870;28;20294;-72
2023/07/29 05:56:57;;;;;;;5.75;3.45;;;;;;;20.51;100.00;99784.50;4931624;28;20292;-72
2023/07/29 05:59:24;;;;;;;4.35;3.20;;;;;;;20.22;100.00;99801.66;4947646;28;20580;-71
2023/07/29 06:01:50;;;;;;;4.30;3.17;;;;;;;20.03;100.00;99786.19;4945842;28;20207;-68
2023/07/29 06:04:19;;;;;;;5.32;3.58;;;;;;;19.85;100.00;99772.47;4949438;28;20294;-70
2023/07/29 06:06:45;;;;;;;3.60;2.95;;;;;;;19.70;100.00;99776.56;4947761;28;20670;-70
2023/07/29 06:09:12;;;;;;;3.80;3.20;;;;;;;19.67;100.00;99788.31;4948869;28;20876;-70
2023/07/29 06:11:38;;;;;;;3.90;2.97;;;;;;;19.69;100.00;99772.13;4950082;28;20198;-70
2023/07/29 06:14:04;;;;;;;2.97;2.67;;;;;;;19.58;100.00;99755.47;4948909;28;20601;-70
2023/07/29 06:16:31;;;;;;;4.63;3.15;;;;;;;19.61;100.00;99782.22;4951313;28;20202;-69
2023/07/29 06:18:57;;;;;;;3.60;2.63;;;;;;;19.54;100.00;99776.19;4919725;28;22169;-71
2023/07/29 06:21:24;;;;;;;6.50;3.35;;;;;;;19.49;100.00;99764.69;4948772;28;20689;-70
2023/07/29 06:23:50;;;;;;;3.58;3.10;;;;;;;19.44;100.00;99763.97;4950173;28;20955;-69
2023/07/29 06:26:17;;;;;;;5.53;3.47;;;;;;;19.43;100.00;99746.09;4949551;28;20210;-70
2023/07/29 06:28:43;;;;;;;4.07;3.08;;;;;;;19.44;100.00;99750.53;4945635;28;20313;-70
2023/07/29 06:31:10;;;;;;;3.70;3.28;;;;;;;19.42;100.00;99755.97;4946195;28;20915;-70
2023/07/29 06:33:36;;;;;;;4.07;2.97;;;;;;;19.38;100.00;99759.69;4945685;28;20203;-70
2023/07/29 06:36:03;;;;;;;5.07;3.28;;;;;;;19.36;100.00;99774.09;4946608;28;20297;-70
2023/07/29 06:38:29;;;;;;;4.72;3.22;;;;;;;19.31;100.00;99787.66;4952095;28;20309;-70
2023/07/29 06:40:56;;;;;;;6.50;4.05;;;;;;;19.38;100.00;99789.22;4949525;28;20211;-70
2023/07/29 06:43:22;;;;;;;8.43;3.28;;;;;;;19.29;100.00;99792.19;4948534;28;20289;-70
2023/07/29 06:45:48;;;;;;;5.28;3.80;;;;;;;19.17;100.00;99789.00;4948241;28;20257;-70
2023/07/29 06:48:15;;;;;;;4.75;3.45;;;;;;;19.09;100.00;99795.50;4952987;28;20728;-71
2023/07/29 06:50:41;;;;;;;4.80;3.38;;;;;;;19.05;100.00;99764.31;4949041;28;20662;-70
2023/07/29 06:53:09;;;;;;;4.53;3.55;;;;;;;18.96;100.00;99745.81;4950972;28;20221;-71
2023/07/29 06:55:35;;;;;;;5.25;3.40;;;;;;;18.99;100.00;99736.78;4947862;28;20216;-70
2023/07/29 06:58:02;;;;;;;6.20;3.42;;;;;;;18.98;100.00;99751.13;4947254;28;20313;-70
2023/07/29 07:00:28;;;;;;;5.35;3.47;;;;;;;19.03;100.00;99760.78;4945386;28;20205;-68
2023/07/29 07:02:54;;;;;;;6.05;4.00;;;;;;;19.13;100.00;99766.75;4945404;28;20206;-70
2023/07/29 07:05:21;;;;;;;7.13;3.92;;;;;;;19.35;100.00;99778.56;4942309;28;20215;-70
2023/07/29 07:07:47;;;;;;;4.68;4.07;;;;;;;19.56;100.00;99795.81;4947809;28;20836;-70
2023/07/29 07:10:14;;;;;;;8.32;4.20;;;;;;;19.62;100.00;99800.13;4946481;28;20205;-68
2023/07/29 07:12:40;;;;;;;7.88;4.28;;;;;;;19.63;100.00;99804.59;4951946;28;20210;-70
2023/07/29 07:15:07;;;;;;;7.68;3.72;;;;;;;19.69;100.00;99804.38;4947066;28;20202;-70
2023/07/29 07:17:34;;;;;;;5.72;3.80;;;;;;;19.73;100.00;99805.16;4944937;28;20750;-70
2023/07/29 07:20:00;;;;;;;8.30;3.90;;;;;;;19.74;100.00;99815.84;4934900;28;20228;-70
2023/07/29 07:22:27;;;;;;;7.47;3.63;;;;;;;19.73;100.00;99811.41;4950909;28;20265;-70
2023/07/29 07:24:53;;;;;;;4.78;3.53;;;;;;;19.78;100.00;99813.94;4949331;28;20208;-71
2023/07/29 07:27:19;;;;;;;7.22;3.50;;;;;;;19.73;100.00;99819.47;4944061;28;20303;-70
2023/07/29 07:29:46;;;;;;;4.68;4.05;;;;;;;19.64;100.00;99823.34;4945647;28;20210;-70
2023/07/29 07:32:12;;;;;;;6.55;3.35;;;;;;;19.62;100.00;99811.75;4944279;28;20666;-70
2023/07/29 07:34:39;;;;;;;3.75;3.13;;;;;;;19.60;100.00;99808.22;4951894;28;20585;-70
2023/07/29 07:37:05;;;;;;;5.40;3.15;;;;;;;19.74;100.00;99801.53;4947951;28;20210;-70
2023/07/29 07:39:32;;;;;;;4.20;3.38;;;;;;;19.95;100.00;99806.16;4941026;28;20252;-71
2023/07/29 07:41:58;;;;;;;4.53;3.08;;;;;;;20.09;100.00;99805.72;4948853;28;20238;-70
2023/07/29 07:44:26;;;;;;;5.38;3.28;;;;;;;20.19;100.00;99816.09;4951402;28;20297;-70
2023/07/29 07:46:53;;;;;;;5.20;3.40;;;;;;;20.27;100.00;99799.66;4948611;28;20206;-70
2023/07/29 07:49:19;;;;;;;4.38;2.80;;;;;;;20.83;100.00;99811.09;4942387;28;20257;-70
2023/07/29 07:51:46;;;;;;;3.72;2.90;;;;;;;21.48;100.00;99818.44;4928934;28;20229;-71
2023/07/29 07:54:12;;;;;;;4.35;3.05;;;;;;;22.35;100.00;99820.16;4941446;28;20213;-71
2023/07/29 07:56:39;;;;;;;3.63;2.63;;;;;;;23.11;100.00;99822.13;4945121;28;20684;-71
2023/07/29 07:59:06;;;;;;;3.70;2.83;;;;;;;23.33;100.00;99830.09;4953521;28;20226;-71
2023/07/29 08:01:36;;;;;;;3.17;2.40;;;;;;;23.32;100.00;99841.00;4943277;28;20748;-72
2023/07/29 08:04:03;;;;;;;3.63;2.80;;;;;;;22.98;100.00;99831.75;4943551;28;20206;-72
2023/07/29 08:06:31;;;;;;;3.10;2.80;;;;;;;23.55;100.00;99834.47;4940550;28;20344;-72
2023/07/29 08:08:58;;;;;;;3.58;2.90;;;;;;;24.53;100.00;99815.06;4946268;28;20710;-71
2023/07/29 08:11:24;;;;;;;3.50;2.83;;;;;;;24.92;100.00;99809.34;4946355;28;20225;-72
2023/07/29 08:13:51;;;;;;;3.38;3.03;;;;;;;25.03;100.00;99813.31;4943947;28;20293;-71
2023/07/29 08:16:17;;;;;;;3.08;2.75;;;;;;;25.18;100.00;99809.75;4945787;28;20206;-72
2023/07/29 08:18:44;;;;;;;4.07;2.30;;;;;;;25.39;100.00;99808.56;4940790;28;20231;-72
2023/07/29 08:21:10;;;;;;;2.85;2.60;;;;;;;25.21;100.00;99813.16;4943577;28;20206;-72
2023/07/29 08:23:37;;;;;;;5.20;2.90;;;;;;;25.32;100.00;99806.28;4943731;28;20256;-72
2023/07/29 08:26:05;;;;;;;2.63;2.17;;;;;;;25.43;100.00;99817.38;4944720;28;20229;-72
2023/07/29 08:28:36;;;;;;;2.78;2.58;;;;;;;25.54;100.00;99820.34;4942384;28;20381;-71
2023/07/29 08:31:03;;;;;;;4.43;2.60;;;;;;;25.71;100.00;99816.72;4943017;28;20202;-71
2023/07/29 08:33:30;;;;;;;5.78;2.40;;;;;;;25.88;100.00;99822.03;4930180;28;20213;-72
2023/07/29 08:35:57;;;;;;;3.22;2.45;;;;;;;26.22;100.00;99820.91;4927797;28;20650;-70
2023/07/29 08:38:24;;;;;;;3.75;2.28;;;;;;;26.32;100.00;99808.50;4948976;28;20226;-73
2023/07/29 08:41:14;;;;;;;3.80;2.50;;;;;;;25.54;100.00;99806.78;4943337;28;20602;-71
2023/07/29 08:43:52;;;;;;;2.33;2.00;;;;;;;25.92;100.00;99797.31;4940276;28;20298;-69
2023/07/29 08:46:19;;;;;;;5.13;2.40;;;;;;;26.07;100.00;99809.13;4926639;28;20214;-70
2023/07/29 08:48:46;;;;;;;2.47;2.05;;;;;;;26.61;100.00;99803.16;4942462;28;20710;-69
2023/07/29 08:51:13;;;;;;;2.88;2.13;;;;;;;26.45;100.00;99798.69;4945604;28;20199;-69
2023/07/29 08:53:40;;;;;;;3.47;2.15;;;;;;;26.30;100.00;99813.16;4929583;28;20205;-70
2023/07/29 08:56:07;;;;;;;2.00;1.80;;;;;;;26.18;100.00;99805.75;4949063;28;20506;-70
2023/07/29 08:58:34;;;;;;;1.90;1.60;;;;;;;26.16;100.00;99807.69;4950204;28;20226;-69
2023/07/29 09:01:01;;;;;;;2.15;1.60;;;;;;;26.07;100.00;99811.84;4945489;28;20682;-70
2023/07/29 09:03:27;;;;;;;3.13;1.92;;;;;;;25.05;100.00;99816.81;4944432;28;20778;-69
2023/07/29 09:05:56;;;;;;;4.93;1.90;;;;;;;24.99;100.00;99804.47;4943899;28;20457;-69
2023/07/29 09:08:25;;;;;;;2.42;1.83;;;;;;;25.05;100.00;99819.53;4943832;28;20258;-70
2023/07/29 09:10:53;;;;;;;2.95;1.98;;;;;;;25.48;100.00;99815.28;4928317;28;20612;-69
2023/07/29 09:13:19;;;;;;;2.78;1.60;;;;;;;25.80;100.00;99813.47;4945996;28;20288;-70
2023/07/29 09:15:46;;;;;;;1.92;1.75;;;;;;;25.79;100.00;99822.56;4942498;28;20605;-70
2023/07/29 09:18:16;;;;;;;3.25;1.90;;;;;;;25.87;100.00;99814.84;4943769;28;21009;-69
2023/07/29 09:20:42;;;;;;;2.03;1.80;;;;;;;26.33;100.00;99807.56;4946145;28;20221;-69
2023/07/29 09:23:10;;;;;;;4.40;1.80;;;;;;;26.75;100.00;99819.47;4944676;28;20273;-69
2023/07/29 09:25:38;;;;;;;3.20;1.48;;;;;;;26.65;100.00;99819.19;4942481;28;20202;-69
2023/07/29 09:28:10;;;;;;;2.67;1.98;;;;;;;26.61;100.00;99816.75;4944491;28;20603;-70
2023/07/29 09:30:44;;;;;;;4.13;3.35;;;;;;;26.79;100.00;99832.78;4944234;28;20206;-70
2023/07/29 09:33:11;;;;;;;10.85;7.70;;;;;;;26.88;100.00;99827.75;4942800;28;20198;-70
2023/07/29 09:35:38;;;;;;;4.70;3.20;;;;;;;26.93;100.00;99826.50;4945082;28;20217;-70
2023/07/29 09:38:05;;;;;;;5.18;4.05;;;;;;;26.97;100.00;99830.75;4946944;28;20277;-71
2023/07/29 09:40:40;;;;;;;5.22;4.50;;;;;;;27.27;100.00;99827.97;4951140;28;20217;-70
2023/07/29 09:43:08;;;;;;;3.47;2.80;;;;;;;27.23;100.00;99821.00;4937140;28;20201;-70
2023/07/29 09:45:35;;;;;;;2.22;1.70;;;;;;;26.78;100.00;99822.00;4952365;28;20206;-70
2023/07/29 09:48:04;;;;;;;2.13;1.80;;;;;;;26.46;100.00;99808.59;4973249;23;20317;-71
2023/07/29 09:50:31;;;;;;;2.13;1.75;;;;;;;26.70;100.00;99802.59;4961683;28;20656;-70
2023/07/29 09:52:58;;;;;;;2.42;1.50;;;;;;;27.10;100.00;99804.56;4956878;28;20229;-70
2023/07/29 09:55:28;;;;;;;2.13;1.63;;;;;;;27.21;99.31;99803.88;4964450;28;20580;-70
2023/07/29 09:58:02;;;;;;;2.83;1.58;;;;;;;27.40;97.20;99812.59;4970681;28;20315;-71
2023/07/29 10:00:31;;;;;;;2.20;1.50;;;;;;;27.39;96.44;99808.13;4983034;28;20228;-71
2023/07/29 10:02:58;;;;;;;2.55;1.60;;;;;;;27.65;91.29;99795.59;4983136;28;20228;-70
2023/07/29 10:05:27;;;;;;;2.03;1.42;;;;;;;27.60;90.49;99807.69;4987351;28;20208;-70
2023/07/29 10:07:54;;;;;;;2.80;1.45;;;;;;;27.37;97.27;99801.06;4985727;28;20216;-69
2023/07/29 10:10:21;;;;;;;2.05;1.40;;;;;;;27.41;98.99;99806.19;4986559;28;20200;-70
2023/07/29 10:12:48;;;;;;;1.50;1.40;;;;;;;27.71;96.10;99802.47;4998124;28;20283;-73
2023/07/29 10:15:14;;;;;;;1.52;1.42;;;;;;;27.83;94.39;99809.78;4989115;28;20217;-74
2023/07/29 10:17:41;;;;;;;3.55;1.52;;;;;;;27.65;93.56;99813.75;4991005;28;20248;-73
2023/07/29 10:20:09;;;;;;;1.70;1.60;;;;;;;27.22;92.98;99802.94;4988710;28;20228;-73
2023/07/29 10:22:38;;;;;;;1.75;1.58;;;;;;;27.38;93.67;99806.38;4989161;28;20216;-73
2023/07/29 10:25:32;;;;;;;3.25;1.52;;;;;;;27.64;91.32;99806.56;4988550;28;20209;-75
2023/07/29 10:28:05;;;;;;;1.55;1.42;;;;;;;26.79;97.20;99811.03;4984240;28;20279;-75
2023/07/29 10:30:32;;;;;;;1.75;1.50;;;;;;;25.96;100.00;99798.00;4988837;28;20201;-76
2023/07/29 10:33:02;;;;;;;2.00;1.48;;;;;;;25.45;100.00;99807.31;4990487;28;20350;-76
2023/07/29 10:35:29;;;;;;;1.63;1.40;;;;;;;25.11;100.00;99811.03;4987861;28;20196;-76
2023/07/29 10:37:56;;;;;;;1.50;1.35;;;;;;;25.14;100.00;99800.91;4988318;28;20339;-75
2023/07/29 10:40:23;;;;;;;2.13;1.60;;;;;;;25.11;100.00;99806.50;4986357;28;20578;-76
2023/07/29 10:43:09;;;;;;;3.83;1.67;;;;;;;24.73;100.00;99802.28;4985382;28;20211;-70
2023/07/29 10:45:40;;;;;;;2.10;1.80;;;;;;;24.66;100.00;99799.91;4981388;28;20201;-70
2023/07/29 10:48:33;;;;;;;2.05;1.58;;;;;;;24.27;100.00;99810.09;4989129;28;20220;-69
2023/07/29 10:51:25;;;;;;;2.45;1.88;;;;;;;24.16;100.00;99805.25;4985955;28;20339;-69
2023/07/29 10:53:54;;;;;;;2.95;2.08;;;;;;;24.77;100.00;99785.78;4984874;28;20208;-69
2023/07/29 10:56:48;;;;;;;2.05;1.70;;;;;;;24.48;100.00;99789.19;4987803;28;20688;-69
2023/07/29 10:59:18;;;;;;;2.78;1.60;;;;;;;24.85;100.00;99788.09;4985467;28;20224;-69
2023/07/29 11:02:18;;;;;;;3.28;1.73;;;;;;;25.12;100.00;99792.00;4987756;28;20205;-69
2023/07/29 11:04:50;;;;;;;1.95;1.50;;;;;;;25.45;100.00;99782.91;4988636;28;20212;-69
2023/07/29 11:07:17;;;;;;;2.03;1.55;;;;;;;26.20;100.00;99776.69;4989097;28;20213;-70
2023/07/29 11:09:56;;;;;;;4.13;1.60;;;;;;;26.89;99.09;99780.59;4988002;28;20197;-69
2023/07/29 11:12:48;;;;;;;1.90;1.60;;;;;;;27.56;85.26;99771.66;4988723;28;20224;-70
2023/07/29 11:15:23;;;;;;;1.98;1.60;;;;;;;27.76;69.34;99771.25;4988549;28;20291;-70
2023/07/29 11:17:54;;;;;;;2.08;1.45;;;;;;;27.52;72.25;99766.50;4988977;28;20298;-69
2023/07/29 11:20:24;;;;;;;1.88;1.63;;;;;;;27.87;71.55;99766.91;4986680;28;20231;-69
2023/07/29 11:22:52;;;;;;;2.60;1.33;;;;;;;27.94;71.10;99773.69;4988356;28;20299;-70
2023/07/29 11:25:21;;;;;;;1.50;1.40;;;;;;;28.16;68.86;99767.66;4984599;28;20208;-70
2023/07/29 11:27:48;;;;;;;1.70;1.60;;;;;;;27.75;70.89;99768.63;4988170;28;20233;-70